Rupert, WV (25984)

6:16 AM EDT on March 27, 2015 (GMT -0400)
KWVALDER3 | | Change Station
CLOSE
Current Station
Personal Weather Station
Location: Blue Sulphur Springs, WV
Elevation: 1719 ft
Nearby Weather Stations

Elev 1719 ft 37.83 °N, 80.64 °W | Updated 1 second ago

Overcast
Overcast
37.8 °F
Feels Like 38 °F
N
0.0
Wind Variable Wind from North
Gusts 0.0 mph

Today
High -- | Low -- °F
--% Chance of Precip.
Yesterday
High -- | Low -- °F
Precip. -- in
7:15 AM 7:40 PM
Waxing Crescent, 51% visible
Pressure 29.79 in
Visibility 10.0 miles
Clouds Overcast 1900 ft
Windchill 38 °F
Dew Point 34 °F
Humidity 87%
Rainfall 0.25 in
Snow Depth Not available.
UV 0 out of 12
Pollen 9.80 out of 12
Air Quality Not available.
Flu Activity Not available.
METAR KLWB 270955Z AUTO 31004KT 10SM -DZ OVC019 04/01 A2979 RMK AO2 T00430014

More Conditions Fewer Conditions

Pressure 29.79 in
Visibility 10.0 miles
Clouds Overcast 1900 ft
Windchill 38 °F
Dew Point 34 °F
Humidity 87%
Rainfall 0.25 in
Snow Depth Not available.
UV 0 out of 12
Pollen 9.80 out of 12
Air Quality Not available.
Flu Activity Not available.
METAR KLWB 270955Z AUTO 31004KT 10SM -DZ OVC019 04/01 A2979 RMK AO2 T00430014

More Conditions Fewer Conditions

10-Day Weather Forecast

Almanac

Astronomy

Mar. 27, 2015 Rise Set
Actual Time
Civil Twilight
Nautical Twilight
Astronomical Twilight
Moon
Length of Visible Light
Length of Day
Tomorrow will be .
, % of the Moon is Illuminated

Today's Extremes

State Highs State Lows

Community

WunderPhotos

Upload Photos

1,808,705 photos uploaded!

WunderBlogs® & News

Nearby

Air Quality

  Air Quality AQ Index Pollutant
Not available.

Snow Depth

Station Depth Elevation

Earthquake Activity

City Distance Mag. Time & Date
Minimum magnitude displayed is 2.5.

Coastal Water Temperatures

Place Temperature

Stations

Nearby Weather Stations

Station Location Temp. Windchill Dew Point Humidity Wind Precip. Elev Updated Type